Weather observations for the past three days for
Pagosa Springs, Wolf Creek Pass
Metric (Imperial)
Date Time (mdt) Wind (kph) Vis. (km) Weather Sky Cond. Temperature (ºC) Relative Humidity Wind Chill (°C) Heat Index (°C) Pressure Precipitation (cm)
Air Dwpt 6 hour altimeter (cm) sea level (mb) 1 hr 3 hr 6 hr
Max. Min.
06 15:35 SW 28 G 43 16.09 Partly Cloudy SCT060 17 1 34% 77.85 0.0
06 15:15 SW 24 G 44 16.09 Partly Cloudy SCT060 17 1 34% 77.85 0.0
06 14:55 SW 24 G 46 16.09 Partly Cloudy SCT060 16 1 36% 77.88 0.0
06 14:35 S 26 G 39 16.09 Fair CLR 17 1 34% 77.9 0.0
06 14:15 S 17 G 37 16.09 Fair CLR 16 1 36% 77.9 0.0
06 13:55 W 13 G 35 16.09 Fair CLR 16 0 34% 77.9 0.0
06 13:35 W 13 G 31 16.09 Fair CLR 16 0 34% 77.93 0.0
06 13:15 SW 15 G 31 16.09 Fair CLR 16 0 34% 77.93 0.0
06 12:55 W 17 16.09 Fair CLR 16 0 34% 77.95 0.0
06 12:35 SW 15 16.09 Fair CLR 15 0 36% 77.95 0.0
06 12:15 SW 13 16.09 Fair CLR 15 0 36% 77.95 0.0
06 11:55 S 13 16.09 Fair CLR 14 0 39% 77.98 0.0
06 11:35 SW 11 16.09 Fair CLR 13 -1 38% 77.98 0.0
06 11:15 SW 9 16.09 Fair CLR 14 -1 36% 77.98 0.0
06 10:55 SW 11 16.09 Fair CLR 13 -1 38% 77.98 0.0
06 10:35 SW 13 16.09 Fair CLR 13 -1 38% 77.98 0.0
06 10:15 SW 11 16.09 Fair CLR 13 -2 36% 77.95 0.0
06 09:55 SW 13 16.09 Fair CLR 12 -1 41% 77.98 0.0
06 09:35 SW 11 16.09 Fair CLR 11 -2 41% 77.98 0.0
06 09:15 SW 7 16.09 Fair CLR 10 0 50% 9 77.98 0.0
06 08:35 SW 7 16.09 Fair CLR 9 -1 50% 8 77.95 0.0
06 08:15 SW 7 16.09 Fair CLR 8 -1 53% 7 77.95 0.0
06 07:55 SW 7 16.09 Fair CLR 8 0 57% 7 77.93 0.0
06 07:35 W 9 16.09 Fair CLR 7 0 61% 5 77.9 0.0
06 07:15 SW 11 16.09 Fair CLR 7 0 61% 5 77.9 0.0
06 06:55 SW 9 16.09 Fair CLR 7 0 61% 5 77.88 0.0
06 06:35 SW 11 16.09 Fair CLR 7 0 61% 5 77.88 0.0
06 06:15 SW 11 16.09 Fair CLR 7 0 61% 5 77.85 0.0
06 05:35 SW 7 16.09 Fair CLR 7 0 61% 6 77.88 0.0
06 05:15 SW 6 16.09 Fair CLR 7 0 61% 77.88 0.0
06 04:55 SW 7 16.09 Fair CLR 7 1 66% 6 77.88 0.0
06 04:35 W 11 16.09 Fair CLR 7 0 61% 5 77.88 0.0
06 04:15 SW 11 16.09 Fair CLR 7 0 61% 5 77.9 0.0
06 03:55 SW 9 16.09 Fair CLR 7 0 61% 5 77.9 0.0
06 03:35 SW 9 16.09 Fair CLR 7 0 61% 5 77.88 0.0
06 03:15 SW 11 16.09 Fair CLR 7 0 61% 5 77.88 0.0
06 02:55 SW 9 16.09 Fair CLR 7 0 61% 5 77.9 0.0
06 02:35 SW 13 16.09 Fair CLR 7 0 61% 5 77.9 0.0
06 02:15 SW 11 16.09 Fair CLR 8 0 57% 6 77.9 0.0
06 01:55 SW 9 16.09 Fair CLR 8 1 62% 7 77.9 0.0
06 01:35 SW 17 16.09 Fair CLR 8 0 57% 6 77.9 0.0
06 01:15 SW 15 16.09 Fair CLR 8 1 62% 6 77.9 0.0
06 00:55 SW 17 16.09 Fair CLR 8 0 57% 6 77.93 0.0
06 00:35 SW 19 16.09 Fair CLR 8 0 57% 5 77.93 0.0
06 00:15 SW 17 16.09 Fair CLR 8 0 57% 6 77.93 0.0
05 23:55 SW 20 16.09 Fair CLR 8 0 57% 5 77.93 0.0
05 23:35 SW 15 16.09 Fair CLR 8 0 57% 6 77.9 0.0
05 23:15 SW 19 16.09 Fair CLR 8 0 57% 5 77.93 0.0
05 22:55 SW 17 16.09 Fair CLR 8 0 57% 6 77.93 0.0
05 22:35 SW 15 16.09 Fair CLR 8 0 57% 6 77.95 0.0
05 22:15 SW 20 G 30 16.09 Fair CLR 8 0 57% 5 77.95 0.0
05 21:55 SW 20 G 30 16.09 Fair CLR 8 0 57% 5 77.95 0.0
05 21:35 SW 20 G 30 16.09 Fair CLR 9 1 58% 6 77.95 0.0
05 21:15 SW 20 16.09 Fair CLR 10 1 54% 8 77.9 0.0
05 20:55 SW 20 G 31 16.09 Fair CLR 10 1 54% 8 77.9 0.0
05 20:35 SW 22 G 33 16.09 Fair CLR 10 1 54% 7 77.9 0.0
05 20:15 SW 24 G 33 16.09 Fair CLR 11 1 50% 77.85 0.0
05 19:55 SW 20 G 33 16.09 Fair CLR 11 1 50% 77.85 0.0
05 19:35 SW 19 G 31 16.09 Fair CLR 12 1 47% 77.88 0.0
05 19:15 SW 24 G 39 16.09 Fair CLR 13 0 41% 77.85 0.0
05 18:55 SW 22 G 37 16.09 Fair CLR 13 1 44% 77.88 0.0
05 18:35 SW 20 G 33 16.09 Fair CLR 15 1 39% 77.88 0.0
05 18:15 SW 13 G 26 16.09 Fair CLR 15 1 39% 77.88 0.0
05 17:55 W 19 G 26 16.09 Fair CLR 16 1 36% 77.88 0.0
05 17:35 SW 31 G 43 16.09 Fair CLR 16 0 34% 77.85 0.0
05 17:15 SW 30 G 44 16.09 Fair CLR 16 0 34% 77.85 0.0
05 16:55 SW 28 G 46 16.09 Fair CLR 17 0 32% 77.88 0.0
05 16:35 SW 22 G 46 16.09 Fair CLR 16 1 36% 77.88 0.0
05 16:15 W 24 G 43 16.09 Fair CLR 17 0 32% 77.88 0.0
05 15:55 W 19 G 31 16.09 Fair CLR 17 1 34% 77.88 0.0
05 15:35 SW 24 G 48 16.09 Partly Cloudy SCT050 SCT060 SCT075 16 2 39% 77.88 0.0
05 15:15 SW 26 G 43 16.09 Partly Cloudy SCT050 SCT070 15 1 39% 77.9 0.0
05 14:55 SW 20 G 35 16.09 Mostly Cloudy BKN050 BKN060 16 3 42% 77.93 0.0
05 14:35 W 17 G 43 16.09 Thunderstorm in Vicinity SCT047 SCT060 15 2 42% 77.95 0.0
05 14:15 SW 26 G 41 16.09 Partly Cloudy SCT042 SCT049 SCT060 15 2 42% 77.93 0.0
05 13:55 SW 17 G 37 16.09 Partly Cloudy SCT040 SCT046 SCT060 15 3 45% 77.95 0.0
05 11:55 SW 26 G 39 16.09 Partly Cloudy SCT035 14 2 44% 77.98 0.0
05 11:35 SW 26 G 37 16.09 Partly Cloudy SCT035 14 3 48% 77.98 0.0
05 11:15 S 19 G 31 16.09 Fair CLR 13 3 51% 78 0.0
05 10:55 SW 22 G 39 16.09 Fair CLR 11 3 58% 78 0.0
05 10:35 SW 22 16.09 Fair CLR 12 3 54% 77.98 0.0
05 10:15 SW 15 16.09 Partly Cloudy SCT032 12 3 54% 77.98 0.0
05 09:55 Calm 16.09 Partly Cloudy SCT032 11 3 58% 77.95 0.0
05 09:35 SW 6 16.09 Fair CLR 12 3 54% 77.95 0.0
05 09:15 Calm 16.09 Fair CLR 11 3 58% 77.95 0.0
05 08:55 SW 6 16.09 Fair CLR 11 4 62% 77.95 0.0
05 08:35 SW 7 16.09 Fair CLR 10 3 62% 9 77.95 0.0
05 08:15 Calm 16.09 Fair CLR 8 4 76% 77.95 0.0
05 07:55 W 6 16.09 Fair CLR 8 3 71% 77.93 0.0
05 07:35 W 6 16.09 Fair CLR 7 4 81% 77.9 0.0
05 07:15 W 7 16.09 Fair CLR 7 4 81% 6 77.9 0.0
05 06:55 W 9 16.09 Fair CLR 7 3 76% 5 77.9 0.0
05 06:35 W 9 16.09 Fair CLR 7 3 76% 5 77.88 0.0
05 06:15 W 11 16.09 Fair CLR 7 3 76% 5 77.85 0.0
05 05:55 W 11 16.09 Fair CLR 7 3 76% 5 77.85 0.0
05 05:35 W 11 16.09 Fair CLR 7 3 76% 5 77.85 0.0
05 05:15 W 13 16.09 Fair CLR 7 4 81% 5 77.88 0.0
05 04:55 W 15 16.09 Fair CLR 7 4 81% 5 77.85 0.0
05 04:35 W 13 16.09 Fair CLR 7 3 76% 5 77.83 0.0
05 04:15 W 11 16.09 Partly Cloudy SCT120 7 3 76% 5 77.83 0.0
05 03:55 SW 17 16.09 Fair CLR 7 3 76% 4 77.85 0.0
05 03:35 SW 17 16.09 Fair CLR 7 3 76% 4 77.85 0.0
05 03:15 W 19 16.09 Fair CLR 8 3 71% 5 77.85 0.0
05 02:55 SW 19 16.09 Fair CLR 8 3 71% 5 77.85 0.0
05 02:35 SW 13 16.09 Fair CLR 7 3 76% 5 77.88 0.0
05 02:15 SW 9 16.09 Partly Cloudy SCT038 SCT046 7 3 76% 5 77.9 0.0
05 01:55 S 9 16.09 Mostly Cloudy SCT027 SCT035 BKN044 8 3 71% 7 77.9 0.0
05 01:35 S 13 16.09 Mostly Cloudy SCT027 BKN035 BKN043 8 3 71% 6 77.9 0.0
05 01:15 S 11 16.09 Partly Cloudy SCT027 SCT035 7 3 76% 5 77.9 0.0
05 00:55 SW 7 16.09 Fair CLR 7 3 76% 6 77.9 0.0
05 00:35 SW 11 16.09 Fair CLR 8 3 71% 6 77.9 0.0
05 00:15 SW 11 16.09 Fair CLR 8 3 71% 6 77.9 0.0
04 23:55 SW 11 16.09 Fair CLR 8 3 71% 6 77.88 0.0
04 23:35 SW 17 16.09 Fair CLR 8 3 71% 6 77.88 0.0
04 23:15 SW 17 16.09 Fair CLR 8 3 71% 6 77.88 0.0
04 22:55 SW 17 16.09 Fair CLR 8 2 66% 6 77.9 0.0
04 22:35 SW 17 16.09 Fair CLR 8 2 66% 6 77.9 0.0
04 22:15 SW 15 16.09 Fair CLR 9 2 62% 7 77.9 0.0
04 21:55 SW 13 16.09 Fair CLR 8 2 66% 6 77.9 0.0
04 21:35 SW 15 16.09 Fair CLR 9 2 62% 7 77.9 0.0
04 21:15 S 15 16.09 Fair CLR 9 2 62% 7 77.88 0.0
04 20:55 SW 15 16.09 Fair CLR 10 2 58% 8 77.85 0.0
04 20:35 SW 13 16.09 Fair CLR 9 2 62% 7 77.83 0.0
04 20:15 SW 15 16.09 Fair CLR 10 2 58% 8 77.83 0.0
04 19:55 SW 17 16.09 Fair CLR 10 2 58% 8 77.83 0.0
04 19:35 SW 20 16.09 Fair CLR 11 2 54% 77.83 0.0
04 19:15 SW 17 16.09 Partly Cloudy SCT044 11 2 54% 77.83 0.0
04 18:55 SW 17 G 35 16.09 Partly Cloudy SCT044 SCT070 12 2 51% 77.83 0.0
04 18:35 SW 15 16.09 Partly Cloudy SCT070 12 2 51% 77.83 0.0
04 18:15 SW 9 G 28 16.09 Fair CLR 12 2 51% 77.83 0.0
04 17:55 SW 20 G 33 16.09 Partly Cloudy SCT046 SCT060 14 2 44% 77.8 0.0
04 17:35 W 11 G 31 16.09 Mostly Cloudy SCT046 SCT050 BKN070 15 3 45% 77.83 0.0
04 17:15 SW 17 G 26 16.09 Partly Cloudy SCT070 14 3 48% 77.83 0.0
04 16:55 W 20 G 35 16.09 Fair CLR 15 3 45% 77.8 0.0
04 16:35 SW 20 G 41 16.09 Partly Cloudy SCT040 15 3 45% 77.8 0.0
04 16:15 SW 20 G 31 16.09 Partly Cloudy SCT040 15 4 48% 77.8 0.0
04 15:55 SW 17 G 37 16.09 Partly Cloudy SCT038 15 3 45% 77.83 0.0
04 15:35 SW 20 G 41 16.09 Partly Cloudy SCT036 SCT055 14 3 48% 77.83 0.0
04 15:15 W 17 G 35 16.09 Fair CLR 13 4 55% 77.85 0.0
04 14:55 SW 26 G 44 16.09 Mostly Cloudy SCT028 BKN070 12 5 63% 77.85 0.0
04 14:35 SW 31 G 43 16.09 Mostly Cloudy SCT027 BKN070 12 5 63% 77.85 0.0
04 14:15 SW 30 G 37 16.09 Mostly Cloudy SCT027 SCT040 BKN070 12 5 63% 77.85 0.0
04 13:55 S 30 G 44 16.09 Partly Cloudy SCT027 SCT038 13 5 59% 77.85 0.0
04 13:35 SW 28 G 46 16.09 Fair CLR 13 5 59% 77.88 0.0
04 13:15 SW 31 G 52 16.09 Partly Cloudy SCT033 SCT042 12 5 63% 77.85 0.0
04 12:55 SW 24 G 43 16.09 Mostly Cloudy SCT021 SCT027 BKN034 12 5 63% 77.88 0.0
04 12:35 SW 24 G 39 16.09 Mostly Cloudy SCT021 BKN032 BKN040 11 5 67% 77.9 0.0
04 12:15 SW 22 G 37 16.09 Overcast SCT018 BKN033 OVC039 9 5 76% 6 77.9 0.0
04 11:55 S 17 G 33 16.09 Overcast BKN016 BKN025 OVC036 8 5 82% 6 77.93 0.0
04 11:35 SW 20 G 33 16.09 Overcast OVC014 9 6 82% 6 77.9 0.0
04 11:15 SW 13 16.09 Overcast BKN012 OVC017 8 5 82% 6 77.9 0.0
04 10:55 SW 11 16.09 Overcast OVC014 9 6 82% 8 77.9 0.0
04 10:35 SW 13 16.09 Overcast BKN014 OVC019 8 6 87% 6 77.88 0.0
04 10:15 SW 11 16.09 Overcast OVC016 8 5 82% 6 77.85 0.0
04 09:55 SW 15 16.09 Overcast SCT007 BKN016 OVC035 9 6 82% 7 77.83 0.0
04 09:35 SW 13 16.09 Overcast SCT007 OVC016 7 5 87% 5 77.83 0.0
04 09:15 SW 11 16.09 Mostly Cloudy SCT007 BKN016 BKN023 7 6 93% 5 77.83 0.0
04 08:55 SW 13 G 26 16.09 Mostly Cloudy SCT005 SCT014 BKN035 7 5 87% 5 77.8 0.0
04 08:35 SW 17 16.09 Overcast BKN005 BKN014 OVC034 6 5 93% 3 77.8 0.0
04 08:15 SW 17 G 28 16.09 Overcast OVC007 7 5 87% 4 77.77 0.0
04 07:55 SW 17 16.09 Overcast OVC007 6 5 93% 3 77.77 0.0
04 07:35 SW 15 16.09 Overcast OVC007 5 5 100% 2 77.75 0.0
04 07:15 SW 22 G 31 16.09 Overcast BKN007 OVC010 5 5 100% 1 77.7 0.0
04 06:55 SW 17 16.09 Mostly Cloudy BKN007 BKN011 5 5 100% 2 77.7 0.0
04 06:35 SW 17 16.09 Mostly Cloudy BKN007 BKN011 5 5 100% 2 77.67 0.0
04 06:15 SW 17 16.09 Fair CLR 5 5 100% 2 77.67 0.0
04 05:55 SW 17 16.09 Fair CLR 5 5 100% 2 77.67 0.0
04 05:35 W 11 16.09 Partly Cloudy SCT010 SCT014 5 5 100% 3 77.67 0.0
04 05:15 W 17 G 33 16.09 Partly Cloudy SCT012 5 5 100% 2 77.65 0.0
04 04:55 SW 22 G 39 16.09 Fair CLR 5 5 100% 1 77.65 0.0
04 04:35 W 22 G 33 16.09 Fair CLR 6 5 93% 2 77.65 0.0
04 04:15 W 24 G 35 16.09 Fair CLR 6 5 93% 2 77.65 0.0
04 03:55 SW 22 G 33 16.09 Fair CLR 6 4 87% 2 77.65 0.0
04 03:35 SW 22 G 33 16.09 Fair CLR 6 4 87% 2 77.65 0.0
04 03:15 SW 22 G 35 16.09 Fair CLR 6 5 93% 2 77.65 0.0
04 02:55 SW 22 G 31 16.09 Fair CLR 6 4 87% 2 77.67 0.0
04 02:35 SW 20 G 33 16.09 Fair CLR 6 4 87% 3 77.67 0.0
04 02:15 SW 22 G 30 16.09 Fair CLR 6 3 81% 2 77.67 0.0
04 01:55 SW 24 G 33 16.09 Fair CLR 6 3 81% 2 77.7 0.0
04 01:35 SW 26 G 35 16.09 Fair CLR 6 3 81% 2 77.7 0.0
04 01:15 SW 19 16.09 Partly Cloudy SCT044 6 3 81% 3 77.7 0.0
04 00:55 SW 20 G 35 16.09 Partly Cloudy SCT029 6 3 81% 3 77.72 0.0
04 00:35 SW 20 G 33 16.09 Partly Cloudy SCT031 7 2 71% 4 77.72 0.0
04 00:15 SW 24 G 37 16.09 Partly Cloudy SCT031 7 2 71% 4 77.7 0.0
03 23:55 SW 19 G 31 16.09 Fair CLR 7 1 66% 4 77.72 0.0
03 23:35 SW 19 G 30 16.09 Partly Cloudy SCT037 7 1 66% 4 77.72 0.0
03 23:15 SW 15 16.09 Mostly Cloudy BKN037 8 1 62% 6 77.72 0.0
03 22:55 SW 15 G 28 16.09 Partly Cloudy SCT037 8 1 62% 6 77.75 0.0
03 22:15 W 13 16.09 Fair CLR 8 1 62% 6 77.77 0.0
03 21:55 W 15 G 31 16.09 Fair CLR 8 1 62% 6 77.77 0.0
03 21:35 W 17 G 30 16.09 Fair CLR 8 1 62% 6 77.75 0.0
03 21:15 SW 19 16.09 Fair CLR 8 1 62% 5 77.75 0.0
03 20:55 W 17 16.09 Fair CLR 8 0 57% 6 77.75 0.0
03 20:35 SW 17 G 31 16.09 Fair CLR 8 0 57% 6 77.72 0.0
03 20:15 W 17 G 30 16.09 Fair CLR 9 0 54% 7 77.7 0.0
03 19:55 SW 22 G 33 16.09 Fair CLR 10 0 50% 7 77.7 0.0
03 19:35 SW 20 G 37 16.09 Fair CLR 10 0 50% 8 77.7 0.0
03 19:15 SW 30 G 43 16.09 Fair CLR 11 0 47% 77.67 0.0
03 18:55 SW 30 G 50 16.09 Fair CLR 11 0 47% 77.67 0.0
03 18:35 SW 37 G 54 16.09 Fair and Breezy CLR 12 0 44% 77.67 0.0
03 18:15 W 19 G 48 16.09 Fair CLR 13 0 41% 77.7 0.0
03 17:55 SW 33 G 54 16.09 Fair and Breezy CLR 13 0 41% 77.67 0.0
03 17:35 SW 39 G 61 16.09 Fair and Breezy CLR 13 0 41% 77.67 0.0
03 17:15 SW 28 G 50 16.09 Fair CLR 13 1 44% 77.7 0.0
03 16:55 SW 30 G 48 16.09 Partly Cloudy SCT044 SCT049 13 1 44% 77.67 0.0
03 16:35 SW 22 G 57 16.09 Partly Cloudy SCT044 14 2 44% 77.7 0.0
03 16:15 SW 35 G 54 16.09 Partly Cloudy and Breezy SCT044 15 1 39% 77.67 0.0
03 15:55 SW 24 G 43 16.09 Partly Cloudy SCT044 13 2 47% 77.7 0.0
Date Time (mdt) Wind (kph) Vis. (km) Weather Sky Cond. Air Dwpt Max. Min. Relative Humidity Wind Chill (°C) Heat Index (°C) altimeter (cm) sea level (mb) 1 hr 3 hr 6 hr
6 hour
Temperature (ºC) Pressure Precipitation (cm)